sensor_id;sensor_type;location;lat;lon;timestamp;temperature;humidity
73360;DHT22;63092;43.582;19.528;2023-09-19T00:01:57;22.10;96.90
73360;DHT22;63092;43.582;19.528;2023-09-19T00:04:23;22.10;96.90
73360;DHT22;63092;43.582;19.528;2023-09-19T00:06:54;22.10;97.10
73360;DHT22;63092;43.582;19.528;2023-09-19T00:09:20;22.10;97.20
73360;DHT22;63092;43.582;19.528;2023-09-19T00:11:45;22.10;96.90
73360;DHT22;63092;43.582;19.528;2023-09-19T00:14:13;22.10;96.70
73360;DHT22;63092;43.582;19.528;2023-09-19T00:16:39;22.20;96.50
73360;DHT22;63092;43.582;19.528;2023-09-19T00:19:06;22.20;96.40
73360;DHT22;63092;43.582;19.528;2023-09-19T00:21:32;22.20;96.10
73360;DHT22;63092;43.582;19.528;2023-09-19T00:23:58;22.20;96.40
73360;DHT22;63092;43.582;19.528;2023-09-19T00:26:23;22.20;96.70
73360;DHT22;63092;43.582;19.528;2023-09-19T00:28:52;22.20;96.80
73360;DHT22;63092;43.582;19.528;2023-09-19T00:31:17;22.10;97.30
73360;DHT22;63092;43.582;19.528;2023-09-19T00:33:43;22.00;97.50
73360;DHT22;63092;43.582;19.528;2023-09-19T00:36:09;22.00;97.50
73360;DHT22;63092;43.582;19.528;2023-09-19T00:38:34;21.90;97.60
73360;DHT22;63092;43.582;19.528;2023-09-19T00:41:00;21.90;97.60
73360;DHT22;63092;43.582;19.528;2023-09-19T00:43:25;22.00;97.80
73360;DHT22;63092;43.582;19.528;2023-09-19T00:45:53;21.90;97.80
73360;DHT22;63092;43.582;19.528;2023-09-19T00:48:20;21.90;98.30
73360;DHT22;63092;43.582;19.528;2023-09-19T00:50:46;21.90;98.50
73360;DHT22;63092;43.582;19.528;2023-09-19T00:53:14;21.80;99.00
73360;DHT22;63092;43.582;19.528;2023-09-19T00:55:40;21.80;99.20
73360;DHT22;63092;43.582;19.528;2023-09-19T00:58:08;21.80;99.20
73360;DHT22;63092;43.582;19.528;2023-09-19T01:00:35;21.80;99.50
73360;DHT22;63092;43.582;19.528;2023-09-19T01:03:01;21.70;99.60
73360;DHT22;63092;43.582;19.528;2023-09-19T01:05:27;21.60;99.90
73360;DHT22;63092;43.582;19.528;2023-09-19T01:07:52;21.50;99.90
73360;DHT22;63092;43.582;19.528;2023-09-19T01:10:18;21.50;99.90
73360;DHT22;63092;43.582;19.528;2023-09-19T01:20:32;21.50;99.90
73360;DHT22;63092;43.582;19.528;2023-09-19T01:26:07;21.50;99.90
73360;DHT22;63092;43.582;19.528;2023-09-19T01:28:39;21.50;99.90
73360;DHT22;63092;43.582;19.528;2023-09-19T01:31:09;21.40;99.90
73360;DHT22;63092;43.582;19.528;2023-09-19T01:36:33;21.50;99.90
73360;DHT22;63092;43.582;19.528;2023-09-19T01:39:04;21.50;99.90
73360;DHT22;63092;43.582;19.528;2023-09-19T01:44:26;21.50;99.90
73360;DHT22;63092;43.582;19.528;2023-09-19T01:46:54;21.50;99.90
73360;DHT22;63092;43.582;19.528;2023-09-19T01:54:51;21.40;99.90
73360;DHT22;63092;43.582;19.528;2023-09-19T02:00:09;21.40;99.90
73360;DHT22;63092;43.582;19.528;2023-09-19T02:02:40;21.30;99.90
73360;DHT22;63092;43.582;19.528;2023-09-19T02:05:07;21.30;99.90
73360;DHT22;63092;43.582;19.528;2023-09-19T02:07:33;21.30;99.90
73360;DHT22;63092;43.582;19.528;2023-09-19T02:09:58;21.30;99.90
73360;DHT22;63092;43.582;19.528;2023-09-19T02:12:30;21.30;99.90
73360;DHT22;63092;43.582;19.528;2023-09-19T02:14:56;21.30;99.90
73360;DHT22;63092;43.582;19.528;2023-09-19T02:17:22;21.30;99.90
73360;DHT22;63092;43.582;19.528;2023-09-19T02:19:54;21.30;99.90
73360;DHT22;63092;43.582;19.528;2023-09-19T02:22:23;21.30;99.90
73360;DHT22;63092;43.582;19.528;2023-09-19T02:24:50;21.30;99.90
73360;DHT22;63092;43.582;19.528;2023-09-19T02:27:16;21.30;99.90
73360;DHT22;63092;43.582;19.528;2023-09-19T02:29:42;21.30;99.90
73360;DHT22;63092;43.582;19.528;2023-09-19T02:32:08;21.30;99.90
73360;DHT22;63092;43.582;19.528;2023-09-19T02:34:35;21.20;99.90
73360;DHT22;63092;43.582;19.528;2023-09-19T02:37:04;21.30;99.90
73360;DHT22;63092;43.582;19.528;2023-09-19T02:39:38;21.20;99.90
73360;DHT22;63092;43.582;19.528;2023-09-19T02:42:04;21.30;99.90
73360;DHT22;63092;43.582;19.528;2023-09-19T02:44:30;21.20;99.90
73360;DHT22;63092;43.582;19.528;2023-09-19T02:46:55;21.30;99.90
73360;DHT22;63092;43.582;19.528;2023-09-19T02:49:22;21.30;99.90
73360;DHT22;63092;43.582;19.528;2023-09-19T02:51:48;21.30;99.90
73360;DHT22;63092;43.582;19.528;2023-09-19T02:54:14;21.20;99.90
73360;DHT22;63092;43.582;19.528;2023-09-19T02:56:41;21.20;99.90
73360;DHT22;63092;43.582;19.528;2023-09-19T02:59:07;21.10;99.90
73360;DHT22;63092;43.582;19.528;2023-09-19T03:01:32;21.20;99.90
73360;DHT22;63092;43.582;19.528;2023-09-19T03:03:59;21.10;99.90
73360;DHT22;63092;43.582;19.528;2023-09-19T03:06:24;21.20;99.90
73360;DHT22;63092;43.582;19.528;2023-09-19T03:08:50;21.10;99.90
73360;DHT22;63092;43.582;19.528;2023-09-19T03:11:17;21.10;99.90
73360;DHT22;63092;43.582;19.528;2023-09-19T03:13:50;21.00;99.90
73360;DHT22;63092;43.582;19.528;2023-09-19T03:16:16;20.90;99.90
73360;DHT22;63092;43.582;19.528;2023-09-19T03:18:41;21.00;99.90
73360;DHT22;63092;43.582;19.528;2023-09-19T03:21:07;20.90;99.90
73360;DHT22;63092;43.582;19.528;2023-09-19T03:23:32;20.90;99.90
73360;DHT22;63092;43.582;19.528;2023-09-19T03:25:58;21.00;99.90
73360;DHT22;63092;43.582;19.528;2023-09-19T03:28:24;20.90;99.90
73360;DHT22;63092;43.582;19.528;2023-09-19T03:30:59;20.90;99.90
73360;DHT22;63092;43.582;19.528;2023-09-19T03:33:25;20.90;99.90
73360;DHT22;63092;43.582;19.528;2023-09-19T03:35:52;20.90;99.90
73360;DHT22;63092;43.582;19.528;2023-09-19T03:38:17;20.90;99.90
73360;DHT22;63092;43.582;19.528;2023-09-19T03:40:43;20.80;99.90
73360;DHT22;63092;43.582;19.528;2023-09-19T03:43:09;20.70;99.90
73360;DHT22;63092;43.582;19.528;2023-09-19T03:45:34;20.80;99.90
73360;DHT22;63092;43.582;19.528;2023-09-19T03:48:00;20.80;99.90
73360;DHT22;63092;43.582;19.528;2023-09-19T03:50:26;20.90;99.90
73360;DHT22;63092;43.582;19.528;2023-09-19T03:52:55;20.90;99.90
73360;DHT22;63092;43.582;19.528;2023-09-19T03:55:21;20.90;99.90
73360;DHT22;63092;43.582;19.528;2023-09-19T03:57:49;20.80;99.90
73360;DHT22;63092;43.582;19.528;2023-09-19T04:00:15;20.80;99.90
73360;DHT22;63092;43.582;19.528;2023-09-19T04:02:43;20.70;99.90
73360;DHT22;63092;43.582;19.528;2023-09-19T04:05:11;20.50;99.90
73360;DHT22;63092;43.582;19.528;2023-09-19T04:07:37;20.50;99.90
73360;DHT22;63092;43.582;19.528;2023-09-19T04:10:02;20.40;99.90
73360;DHT22;63092;43.582;19.528;2023-09-19T04:12:28;20.40;99.90
73360;DHT22;63092;43.582;19.528;2023-09-19T04:14:54;20.40;99.90
73360;DHT22;63092;43.582;19.528;2023-09-19T04:17:19;20.40;99.90
73360;DHT22;63092;43.582;19.528;2023-09-19T04:19:45;20.40;99.90
73360;DHT22;63092;43.582;19.528;2023-09-19T04:22:11;20.50;99.90
73360;DHT22;63092;43.582;19.528;2023-09-19T04:24:38;20.50;99.90
73360;DHT22;63092;43.582;19.528;2023-09-19T04:27:04;20.50;99.90
73360;DHT22;63092;43.582;19.528;2023-09-19T04:29:29;20.50;99.90
73360;DHT22;63092;43.582;19.528;2023-09-19T04:31:55;20.50;99.90
73360;DHT22;63092;43.582;19.528;2023-09-19T04:34:22;20.50;99.90
73360;DHT22;63092;43.582;19.528;2023-09-19T04:36:49;20.60;99.90
73360;DHT22;63092;43.582;19.528;2023-09-19T04:39:15;20.50;99.90
73360;DHT22;63092;43.582;19.528;2023-09-19T04:41:42;20.60;99.90
73360;DHT22;63092;43.582;19.528;2023-09-19T04:44:07;20.60;99.90
73360;DHT22;63092;43.582;19.528;2023-09-19T04:46:33;20.60;99.90
73360;DHT22;63092;43.582;19.528;2023-09-19T04:48:59;20.60;99.90
73360;DHT22;63092;43.582;19.528;2023-09-19T04:51:24;20.70;99.90
73360;DHT22;63092;43.582;19.528;2023-09-19T04:53:52;20.70;99.90
73360;DHT22;63092;43.582;19.528;2023-09-19T04:56:17;20.70;99.90
73360;DHT22;63092;43.582;19.528;2023-09-19T04:58:44;20.70;99.90
73360;DHT22;63092;43.582;19.528;2023-09-19T05:01:10;20.60;99.90
73360;DHT22;63092;43.582;19.528;2023-09-19T05:03:37;20.70;99.90
73360;DHT22;63092;43.582;19.528;2023-09-19T05:06:03;20.50;99.90
73360;DHT22;63092;43.582;19.528;2023-09-19T05:08:30;20.60;99.90
73360;DHT22;63092;43.582;19.528;2023-09-19T05:10:56;20.70;99.90
73360;DHT22;63092;43.582;19.528;2023-09-19T05:13:22;20.70;99.90
73360;DHT22;63092;43.582;19.528;2023-09-19T05:15:49;20.80;99.90
73360;DHT22;63092;43.582;19.528;2023-09-19T05:18:15;20.80;99.90
73360;DHT22;63092;43.582;19.528;2023-09-19T05:20:41;20.70;99.90
73360;DHT22;63092;43.582;19.528;2023-09-19T05:23:07;20.70;99.90
73360;DHT22;63092;43.582;19.528;2023-09-19T05:25:38;20.70;99.90
73360;DHT22;63092;43.582;19.528;2023-09-19T05:28:05;20.70;99.90
73360;DHT22;63092;43.582;19.528;2023-09-19T05:30:31;20.60;99.90
73360;DHT22;63092;43.582;19.528;2023-09-19T05:32:57;20.60;99.90
73360;DHT22;63092;43.582;19.528;2023-09-19T05:35:23;20.60;99.90
73360;DHT22;63092;43.582;19.528;2023-09-19T05:37:53;20.70;99.90
73360;DHT22;63092;43.582;19.528;2023-09-19T05:40:19;20.70;99.90
73360;DHT22;63092;43.582;19.528;2023-09-19T05:42:44;20.70;99.90
73360;DHT22;63092;43.582;19.528;2023-09-19T05:45:10;20.40;99.90
73360;DHT22;63092;43.582;19.528;2023-09-19T05:47:41;20.40;99.90
73360;DHT22;63092;43.582;19.528;2023-09-19T05:50:08;20.40;99.90
73360;DHT22;63092;43.582;19.528;2023-09-19T05:52:37;20.40;99.90
73360;DHT22;63092;43.582;19.528;2023-09-19T05:55:05;20.40;99.90
73360;DHT22;63092;43.582;19.528;2023-09-19T05:57:33;20.40;99.90
73360;DHT22;63092;43.582;19.528;2023-09-19T05:59:59;20.50;99.90
73360;DHT22;63092;43.582;19.528;2023-09-19T06:02:24;20.60;99.90
73360;DHT22;63092;43.582;19.528;2023-09-19T06:04:54;20.70;99.90
73360;DHT22;63092;43.582;19.528;2023-09-19T06:07:23;20.80;99.90
73360;DHT22;63092;43.582;19.528;2023-09-19T06:09:52;20.90;99.90
73360;DHT22;63092;43.582;19.528;2023-09-19T06:12:19;21.00;99.90
73360;DHT22;63092;43.582;19.528;2023-09-19T06:14:44;21.10;99.90
73360;DHT22;63092;43.582;19.528;2023-09-19T06:17:10;21.10;99.90
73360;DHT22;63092;43.582;19.528;2023-09-19T06:19:36;21.20;99.90
73360;DHT22;63092;43.582;19.528;2023-09-19T06:22:01;21.30;99.90
73360;DHT22;63092;43.582;19.528;2023-09-19T06:24:27;21.50;99.90
73360;DHT22;63092;43.582;19.528;2023-09-19T06:26:53;21.60;99.90
73360;DHT22;63092;43.582;19.528;2023-09-19T06:29:20;21.70;99.90
73360;DHT22;63092;43.582;19.528;2023-09-19T06:31:48;21.80;99.90
73360;DHT22;63092;43.582;19.528;2023-09-19T06:34:13;21.90;99.90
73360;DHT22;63092;43.582;19.528;2023-09-19T06:36:40;21.90;99.90
73360;DHT22;63092;43.582;19.528;2023-09-19T06:39:06;21.90;99.90
73360;DHT22;63092;43.582;19.528;2023-09-19T06:41:32;21.90;99.90
73360;DHT22;63092;43.582;19.528;2023-09-19T06:43:57;21.90;99.90
73360;DHT22;63092;43.582;19.528;2023-09-19T06:46:23;22.00;99.90
73360;DHT22;63092;43.582;19.528;2023-09-19T06:48:50;22.00;99.90
73360;DHT22;63092;43.582;19.528;2023-09-19T06:51:18;22.20;99.90
73360;DHT22;63092;43.582;19.528;2023-09-19T06:53:43;22.30;99.90
73360;DHT22;63092;43.582;19.528;2023-09-19T06:58:35;22.60;99.90
73360;DHT22;63092;43.582;19.528;2023-09-19T07:01:02;22.60;99.90
73360;DHT22;63092;43.582;19.528;2023-09-19T07:03:28;22.80;99.90
73360;DHT22;63092;43.582;19.528;2023-09-19T07:05:54;22.90;99.90
73360;DHT22;63092;43.582;19.528;2023-09-19T07:08:21;23.10;99.90
73360;DHT22;63092;43.582;19.528;2023-09-19T07:10:47;23.10;99.90
73360;DHT22;63092;43.582;19.528;2023-09-19T07:13:18;23.30;99.90
73360;DHT22;63092;43.582;19.528;2023-09-19T07:15:43;23.40;99.90
73360;DHT22;63092;43.582;19.528;2023-09-19T07:18:13;23.70;99.90
73360;DHT22;63092;43.582;19.528;2023-09-19T07:20:40;23.70;99.90
73360;DHT22;63092;43.582;19.528;2023-09-19T07:25:37;24.00;99.90
73360;DHT22;63092;43.582;19.528;2023-09-19T07:30:29;24.40;98.90
73360;DHT22;63092;43.582;19.528;2023-09-19T07:32:55;24.60;99.00
73360;DHT22;63092;43.582;19.528;2023-09-19T07:35:20;24.70;98.80
73360;DHT22;63092;43.582;19.528;2023-09-19T07:37:46;24.90;98.10
73360;DHT22;63092;43.582;19.528;2023-09-19T07:40:17;24.90;97.80
73360;DHT22;63092;43.582;19.528;2023-09-19T07:42:43;24.90;97.80
73360;DHT22;63092;43.582;19.528;2023-09-19T07:45:10;24.80;97.60
73360;DHT22;63092;43.582;19.528;2023-09-19T07:47:49;24.80;97.30
73360;DHT22;63092;43.582;19.528;2023-09-19T07:50:15;24.70;97.10
73360;DHT22;63092;43.582;19.528;2023-09-19T07:52:41;24.80;97.20
73360;DHT22;63092;43.582;19.528;2023-09-19T07:55:08;24.90;97.40
73360;DHT22;63092;43.582;19.528;2023-09-19T07:57:35;24.80;97.30
73360;DHT22;63092;43.582;19.528;2023-09-19T08:00:00;25.00;97.10
73360;DHT22;63092;43.582;19.528;2023-09-19T08:02:26;25.00;97.10
73360;DHT22;63092;43.582;19.528;2023-09-19T08:04:53;24.90;97.00
73360;DHT22;63092;43.582;19.528;2023-09-19T08:07:19;24.90;97.30
73360;DHT22;63092;43.582;19.528;2023-09-19T08:09:44;24.80;97.40
73360;DHT22;63092;43.582;19.528;2023-09-19T08:12:13;24.60;97.70
73360;DHT22;63092;43.582;19.528;2023-09-19T08:14:40;24.70;98.00
73360;DHT22;63092;43.582;19.528;2023-09-19T08:17:06;24.80;97.60
73360;DHT22;63092;43.582;19.528;2023-09-19T08:19:33;24.80;98.40
73360;DHT22;63092;43.582;19.528;2023-09-19T08:21:59;24.50;98.50
73360;DHT22;63092;43.582;19.528;2023-09-19T08:24:28;24.50;98.70
73360;DHT22;63092;43.582;19.528;2023-09-19T08:26:54;24.60;98.60
73360;DHT22;63092;43.582;19.528;2023-09-19T08:29:21;24.70;98.50
73360;DHT22;63092;43.582;19.528;2023-09-19T08:31:46;24.90;98.40
73360;DHT22;63092;43.582;19.528;2023-09-19T08:34:14;24.90;98.40
73360;DHT22;63092;43.582;19.528;2023-09-19T08:36:40;25.00;98.60
73360;DHT22;63092;43.582;19.528;2023-09-19T08:39:08;25.00;98.20
73360;DHT22;63092;43.582;19.528;2023-09-19T08:41:34;24.90;97.80
73360;DHT22;63092;43.582;19.528;2023-09-19T08:43:59;25.00;98.20
73360;DHT22;63092;43.582;19.528;2023-09-19T08:46:30;24.90;97.60
73360;DHT22;63092;43.582;19.528;2023-09-19T08:49:05;25.00;97.40
73360;DHT22;63092;43.582;19.528;2023-09-19T08:51:41;25.00;97.70
73360;DHT22;63092;43.582;19.528;2023-09-19T08:54:11;25.20;97.60
73360;DHT22;63092;43.582;19.528;2023-09-19T08:56:39;25.30;97.70
73360;DHT22;63092;43.582;19.528;2023-09-19T09:01:33;25.70;96.60
73360;DHT22;63092;43.582;19.528;2023-09-19T09:03:59;25.80;95.90
73360;DHT22;63092;43.582;19.528;2023-09-19T09:06:25;25.90;96.00
73360;DHT22;63092;43.582;19.528;2023-09-19T09:08:51;26.00;96.10
73360;DHT22;63092;43.582;19.528;2023-09-19T09:11:17;26.40;95.70
73360;DHT22;63092;43.582;19.528;2023-09-19T09:13:46;26.80;95.50
73360;DHT22;63092;43.582;19.528;2023-09-19T09:16:12;27.10;94.20
73360;DHT22;63092;43.582;19.528;2023-09-19T09:18:39;27.40;93.30
73360;DHT22;63092;43.582;19.528;2023-09-19T09:21:05;27.50;92.60
73360;DHT22;63092;43.582;19.528;2023-09-19T09:25:58;27.90;92.20
73360;DHT22;63092;43.582;19.528;2023-09-19T09:28:25;27.90;92.20
73360;DHT22;63092;43.582;19.528;2023-09-19T09:30:52;28.00;92.10
73360;DHT22;63092;43.582;19.528;2023-09-19T09:33:18;28.20;91.80
73360;DHT22;63092;43.582;19.528;2023-09-19T09:35:50;28.30;91.40
73360;DHT22;63092;43.582;19.528;2023-09-19T09:38:18;28.40;91.60
73360;DHT22;63092;43.582;19.528;2023-09-19T09:40:51;28.50;91.20
73360;DHT22;63092;43.582;19.528;2023-09-19T09:43:32;28.70;90.40
73360;DHT22;63092;43.582;19.528;2023-09-19T09:48:35;29.20;89.80
73360;DHT22;63092;43.582;19.528;2023-09-19T09:53:33;29.30;87.90
73360;DHT22;63092;43.582;19.528;2023-09-19T09:56:06;29.30;87.80
73360;DHT22;63092;43.582;19.528;2023-09-19T09:58:35;29.20;87.00
73360;DHT22;63092;43.582;19.528;2023-09-19T10:01:02;29.20;87.70
73360;DHT22;63092;43.582;19.528;2023-09-19T10:03:39;29.30;87.30
73360;DHT22;63092;43.582;19.528;2023-09-19T10:06:07;29.30;87.30
73360;DHT22;63092;43.582;19.528;2023-09-19T10:09:07;29.30;86.60
73360;DHT22;63092;43.582;19.528;2023-09-19T10:11:43;29.30;87.60
73360;DHT22;63092;43.582;19.528;2023-09-19T10:14:10;29.30;87.80
73360;DHT22;63092;43.582;19.528;2023-09-19T10:16:40;29.30;87.40
73360;DHT22;63092;43.582;19.528;2023-09-19T10:19:10;29.30;87.20
73360;DHT22;63092;43.582;19.528;2023-09-19T10:21:41;29.40;85.60
73360;DHT22;63092;43.582;19.528;2023-09-19T10:24:08;29.50;85.30
73360;DHT22;63092;43.582;19.528;2023-09-19T10:26:34;29.40;83.60
73360;DHT22;63092;43.582;19.528;2023-09-19T10:29:01;29.40;84.00
73360;DHT22;63092;43.582;19.528;2023-09-19T10:31:29;29.50;84.80
73360;DHT22;63092;43.582;19.528;2023-09-19T10:33:55;29.60;84.80
73360;DHT22;63092;43.582;19.528;2023-09-19T10:36:23;29.70;86.20
73360;DHT22;63092;43.582;19.528;2023-09-19T10:38:50;29.80;87.10
73360;DHT22;63092;43.582;19.528;2023-09-19T10:41:20;29.80;87.40
73360;DHT22;63092;43.582;19.528;2023-09-19T10:43:47;29.80;88.10
73360;DHT22;63092;43.582;19.528;2023-09-19T10:46:13;29.80;87.80
73360;DHT22;63092;43.582;19.528;2023-09-19T10:56:26;29.60;87.40
73360;DHT22;63092;43.582;19.528;2023-09-19T10:59:12;29.70;87.10
73360;DHT22;63092;43.582;19.528;2023-09-19T11:01:51;29.80;86.00
73360;DHT22;63092;43.582;19.528;2023-09-19T11:04:21;29.80;86.80
73360;DHT22;63092;43.582;19.528;2023-09-19T11:09:45;29.70;85.60
73360;DHT22;63092;43.582;19.528;2023-09-19T11:12:11;29.80;84.80
73360;DHT22;63092;43.582;19.528;2023-09-19T11:22:23;30.20;80.80
73360;DHT22;63092;43.582;19.528;2023-09-19T11:24:49;30.30;80.90
73360;DHT22;63092;43.582;19.528;2023-09-19T11:27:16;30.30;80.20
73360;DHT22;63092;43.582;19.528;2023-09-19T11:29:44;30.40;78.70
73360;DHT22;63092;43.582;19.528;2023-09-19T11:32:10;30.40;78.50
73360;DHT22;63092;43.582;19.528;2023-09-19T11:37:01;30.50;77.70
73360;DHT22;63092;43.582;19.528;2023-09-19T11:39:30;30.50;75.70
73360;DHT22;63092;43.582;19.528;2023-09-19T11:41:55;30.60;75.70
73360;DHT22;63092;43.582;19.528;2023-09-19T11:46:53;30.80;74.80
73360;DHT22;63092;43.582;19.528;2023-09-19T11:49:19;30.80;74.80
73360;DHT22;63092;43.582;19.528;2023-09-19T11:51:52;30.80;73.90
73360;DHT22;63092;43.582;19.528;2023-09-19T11:56:44;30.90;80.00
73360;DHT22;63092;43.582;19.528;2023-09-19T11:59:11;30.90;75.20
73360;DHT22;63092;43.582;19.528;2023-09-19T12:01:37;31.00;74.80
73360;DHT22;63092;43.582;19.528;2023-09-19T12:04:06;31.10;74.30
73360;DHT22;63092;43.582;19.528;2023-09-19T12:06:33;31.30;74.80
73360;DHT22;63092;43.582;19.528;2023-09-19T12:08:59;32.30;79.00
73360;DHT22;63092;43.582;19.528;2023-09-19T12:11:28;31.50;74.10
73360;DHT22;63092;43.582;19.528;2023-09-19T12:13:57;31.50;72.60
73360;DHT22;63092;43.582;19.528;2023-09-19T12:16:25;31.50;72.80
73360;DHT22;63092;43.582;19.528;2023-09-19T12:18:55;31.50;72.20
73360;DHT22;63092;43.582;19.528;2023-09-19T12:21:31;31.50;72.70
73360;DHT22;63092;43.582;19.528;2023-09-19T12:23:58;31.60;72.90
73360;DHT22;63092;43.582;19.528;2023-09-19T12:26:24;31.50;73.20
73360;DHT22;63092;43.582;19.528;2023-09-19T12:28:49;31.40;72.50
73360;DHT22;63092;43.582;19.528;2023-09-19T12:31:18;31.20;72.50
73360;DHT22;63092;43.582;19.528;2023-09-19T12:33:45;31.20;71.20
73360;DHT22;63092;43.582;19.528;2023-09-19T12:36:23;31.20;71.90
73360;DHT22;63092;43.582;19.528;2023-09-19T12:38:58;31.20;72.10
73360;DHT22;63092;43.582;19.528;2023-09-19T12:41:24;31.30;72.40
73360;DHT22;63092;43.582;19.528;2023-09-19T12:43:51;31.50;72.50
73360;DHT22;63092;43.582;19.528;2023-09-19T12:46:22;31.50;72.30
73360;DHT22;63092;43.582;19.528;2023-09-19T12:49:14;31.50;71.60
73360;DHT22;63092;43.582;19.528;2023-09-19T12:51:38;31.50;72.10
73360;DHT22;63092;43.582;19.528;2023-09-19T12:54:04;31.60;72.40
73360;DHT22;63092;43.582;19.528;2023-09-19T12:56:38;31.70;72.20
73360;DHT22;63092;43.582;19.528;2023-09-19T12:59:05;31.80;70.90
73360;DHT22;63092;43.582;19.528;2023-09-19T13:01:32;31.90;71.30
73360;DHT22;63092;43.582;19.528;2023-09-19T13:04:10;32.00;71.70
73360;DHT22;63092;43.582;19.528;2023-09-19T13:06:37;32.10;70.30
73360;DHT22;63092;43.582;19.528;2023-09-19T13:09:11;32.00;69.90
73360;DHT22;63092;43.582;19.528;2023-09-19T13:11:38;31.90;69.90
73360;DHT22;63092;43.582;19.528;2023-09-19T13:19:48;31.90;69.10
73360;DHT22;63092;43.582;19.528;2023-09-19T13:24:59;31.80;69.30
73360;DHT22;63092;43.582;19.528;2023-09-19T13:27:25;31.80;68.90
73360;DHT22;63092;43.582;19.528;2023-09-19T13:29:52;31.80;69.10
73360;DHT22;63092;43.582;19.528;2023-09-19T13:32:18;31.80;69.00
73360;DHT22;63092;43.582;19.528;2023-09-19T13:34:44;31.70;68.90
73360;DHT22;63092;43.582;19.528;2023-09-19T13:37:09;31.80;68.90
73360;DHT22;63092;43.582;19.528;2023-09-19T13:39:35;31.70;69.70
73360;DHT22;63092;43.582;19.528;2023-09-19T13:42:01;31.60;69.90
73360;DHT22;63092;43.582;19.528;2023-09-19T13:44:28;31.60;69.40
73360;DHT22;63092;43.582;19.528;2023-09-19T13:46:55;31.60;70.10
73360;DHT22;63092;43.582;19.528;2023-09-19T13:49:22;31.60;69.50
73360;DHT22;63092;43.582;19.528;2023-09-19T13:51:48;31.60;68.90
73360;DHT22;63092;43.582;19.528;2023-09-19T13:54:14;31.50;69.70
73360;DHT22;63092;43.582;19.528;2023-09-19T13:56:40;31.50;69.70
73360;DHT22;63092;43.582;19.528;2023-09-19T13:59:06;31.40;69.80
73360;DHT22;63092;43.582;19.528;2023-09-19T14:01:31;31.20;69.70
73360;DHT22;63092;43.582;19.528;2023-09-19T14:03:57;31.00;70.20
73360;DHT22;63092;43.582;19.528;2023-09-19T14:06:23;30.90;70.50
73360;DHT22;63092;43.582;19.528;2023-09-19T14:08:49;30.90;70.30
73360;DHT22;63092;43.582;19.528;2023-09-19T14:11:15;30.90;70.40
73360;DHT22;63092;43.582;19.528;2023-09-19T14:13:41;30.90;70.50
73360;DHT22;63092;43.582;19.528;2023-09-19T14:16:09;30.90;70.10
73360;DHT22;63092;43.582;19.528;2023-09-19T14:18:35;30.80;69.60
73360;DHT22;63092;43.582;19.528;2023-09-19T14:21:04;30.80;70.30
73360;DHT22;63092;43.582;19.528;2023-09-19T14:23:34;30.80;70.50
73360;DHT22;63092;43.582;19.528;2023-09-19T14:26:00;30.80;70.80
73360;DHT22;63092;43.582;19.528;2023-09-19T14:30:52;30.70;69.70
73360;DHT22;63092;43.582;19.528;2023-09-19T14:33:18;30.60;71.10
73360;DHT22;63092;43.582;19.528;2023-09-19T14:35:43;30.50;71.40
73360;DHT22;63092;43.582;19.528;2023-09-19T14:38:09;30.60;71.30
73360;DHT22;63092;43.582;19.528;2023-09-19T14:40:34;30.60;71.60
73360;DHT22;63092;43.582;19.528;2023-09-19T14:43:01;30.60;71.20
73360;DHT22;63092;43.582;19.528;2023-09-19T14:45:27;30.60;71.30
73360;DHT22;63092;43.582;19.528;2023-09-19T14:47:53;30.50;70.80
73360;DHT22;63092;43.582;19.528;2023-09-19T14:50:21;30.60;70.10
73360;DHT22;63092;43.582;19.528;2023-09-19T14:55:15;30.10;70.60
73360;DHT22;63092;43.582;19.528;2023-09-19T14:57:42;30.00;71.30
73360;DHT22;63092;43.582;19.528;2023-09-19T15:00:10;29.90;71.80
73360;DHT22;63092;43.582;19.528;2023-09-19T15:02:38;29.40;72.90
73360;DHT22;63092;43.582;19.528;2023-09-19T15:05:04;29.10;73.90
73360;DHT22;63092;43.582;19.528;2023-09-19T15:07:32;29.00;74.00
73360;DHT22;63092;43.582;19.528;2023-09-19T15:09:57;28.60;73.70
73360;DHT22;63092;43.582;19.528;2023-09-19T15:12:23;28.40;74.30
73360;DHT22;63092;43.582;19.528;2023-09-19T15:14:48;28.40;75.30
73360;DHT22;63092;43.582;19.528;2023-09-19T15:17:14;28.10;74.40
73360;DHT22;63092;43.582;19.528;2023-09-19T15:19:40;28.00;73.80
73360;DHT22;63092;43.582;19.528;2023-09-19T15:22:06;27.90;74.00
73360;DHT22;63092;43.582;19.528;2023-09-19T15:24:32;27.90;73.50
73360;DHT22;63092;43.582;19.528;2023-09-19T15:26:57;27.80;74.00
73360;DHT22;63092;43.582;19.528;2023-09-19T15:29:24;27.70;74.90
73360;DHT22;63092;43.582;19.528;2023-09-19T15:31:50;27.40;75.70
73360;DHT22;63092;43.582;19.528;2023-09-19T15:34:16;27.40;76.60
73360;DHT22;63092;43.582;19.528;2023-09-19T15:36:41;27.20;75.90
73360;DHT22;63092;43.582;19.528;2023-09-19T15:39:07;27.20;76.50
73360;DHT22;63092;43.582;19.528;2023-09-19T15:41:37;27.20;77.00
73360;DHT22;63092;43.582;19.528;2023-09-19T15:44:02;27.10;77.30
73360;DHT22;63092;43.582;19.528;2023-09-19T15:46:29;27.10;77.50
73360;DHT22;63092;43.582;19.528;2023-09-19T15:48:55;27.10;77.60
73360;DHT22;63092;43.582;19.528;2023-09-19T15:51:20;27.10;77.80
73360;DHT22;63092;43.582;19.528;2023-09-19T15:53:48;27.10;77.70
73360;DHT22;63092;43.582;19.528;2023-09-19T15:56:14;27.10;78.10
73360;DHT22;63092;43.582;19.528;2023-09-19T15:58:45;27.10;78.60
73360;DHT22;63092;43.582;19.528;2023-09-19T16:01:10;27.00;78.60
73360;DHT22;63092;43.582;19.528;2023-09-19T16:03:41;27.00;78.50
73360;DHT22;63092;43.582;19.528;2023-09-19T16:06:09;27.00;78.60
73360;DHT22;63092;43.582;19.528;2023-09-19T16:08:35;27.00;78.50
73360;DHT22;63092;43.582;19.528;2023-09-19T16:11:03;26.80;79.00
73360;DHT22;63092;43.582;19.528;2023-09-19T16:13:28;26.70;79.70
73360;DHT22;63092;43.582;19.528;2023-09-19T16:15:54;26.60;80.00
73360;DHT22;63092;43.582;19.528;2023-09-19T16:18:19;26.50;80.70
73360;DHT22;63092;43.582;19.528;2023-09-19T16:20:45;26.40;81.00
73360;DHT22;63092;43.582;19.528;2023-09-19T16:23:11;26.30;81.70
73360;DHT22;63092;43.582;19.528;2023-09-19T16:25:37;26.20;81.50
73360;DHT22;63092;43.582;19.528;2023-09-19T16:28:03;26.20;81.80
73360;DHT22;63092;43.582;19.528;2023-09-19T16:30:31;26.10;82.20
73360;DHT22;63092;43.582;19.528;2023-09-19T16:32:56;26.00;82.60
73360;DHT22;63092;43.582;19.528;2023-09-19T16:35:22;25.90;82.90
73360;DHT22;63092;43.582;19.528;2023-09-19T16:37:47;25.80;83.70